Detall de PIREP

Printer-friendly versionPDF version

[2012/11/28 11:33:00]
Flight IATA:CT2106
Pilot Number:042
Company ICAO:CAT
Aircraft Type:B738/F
PAX:132
Departing Airport: LEVC
Destination Airport: LEMD
Alternate Airport:LEMG
Online: VATSIM
Route:CLS UN733 PRADO
Flight Level:F250
No Slew and time accel
No pause
Crash detect
Detect pilot in Cockpit between each 30 and 45 minutes
11:33 Zero fuel Weight: 115601 Lbs, Fuel Weight: 37971 Lbs
11:33 VATSIM:LEVC 281100Z 27014KT 9999 FEW035 14/02 Q1001 NOSIG
11:33 VATSIM:LEMD 281100Z 28010G21KT 260V350 9999 SCT057 08/M01 Q1008 NOSIG
11:33 VOICE CATALONIAN/ROUTE IATA CT2106
11:40 Parking Brakes off
11:44 Take-off
11:44 Take off Weight: 152878 Lbs
11:44 Wind: 273º @ 014 Knots Heading: 294º
11:44 POS N39º 29´ 25´´ W000º 29´ 03´´
11:44 Gear Up: 149 Knots
11:44 Flaps:5 at 149 Knots
11:44 Flaps:4 at 145 Knots
11:44 Flaps:3 at 157 Knots
11:46 Flaps:2 at 192 Knots
11:46 Flaps:1 at 201 Knots
11:46 Flaps:0 at 215 Knots
11:55 TOC
11:55 Fuel Weight: 34370 Lb
11:59 Wind:355º@055 Knots Heading: 304º Ground Speed: 407 Knots Altitude 24809 ft
12:04 TOD
12:04 Fuel Weight: 33421 Lb
12:13 Flaps:1 at 221 Knots
12:14 Wind:002º@022 Knots Heading: 216º Ground Speed: 272 Knots Altitude 9291 ft
12:14 Flaps:2 at 216 Knots
12:15 Flaps:3 at 209 Knots
12:16 Flaps:4 at 200 Knots
12:17 Gear Down: 209 Knots
12:17 Flaps:5 at 209 Knots
12:17 Flaps:6 at 179 Knots
12:17 Flaps:7 at 176 Knots
12:17 Flaps:8 at 157 Knots
12:21 TouchDown:Rate -374 ft/min Speed: 128 Knots
12:21 VATSIM:LEMD 281200Z 26010KT 9999 SCT055 09/M01 Q1008 NOSIG
12:21 Land
12:21 Wind:329º@010 Knots
12:21 Heading: 186º
12:21 Flight Duration: 00:37
12:21 Landing Weight: 148010 Lbs
12:21 POS N40º 30´ 39´´ W003º 33´ 32´´
12:32 Parking brakes on
12:32 Block to Block Duration: 00:52
12:32 Final Fuel: 31305 Lbls
12:32 Spent Fuel: 6666 Lbls
12:32 Flight Length: 194 NM
12:32 TOD Land Length: 77 NM

Exportar CSV

Powered by Drupal - Modified by Danger4k